createdAt,value
2023-01-09T00:01:12.373Z,6.00
2023-01-09T00:03:39.583Z,6.80
2023-01-09T00:06:07.071Z,7.40
2023-01-09T00:08:34.311Z,8.90
2023-01-09T00:11:01.729Z,8.10
2023-01-09T00:13:28.987Z,8.50
2023-01-09T00:15:56.908Z,8.80
2023-01-09T00:18:24.129Z,8.60
2023-01-09T00:20:51.523Z,9.00
2023-01-09T00:23:18.945Z,8.40
2023-01-09T00:25:46.224Z,9.50
2023-01-09T00:28:13.427Z,9.40
2023-01-09T00:30:40.662Z,9.30
2023-01-09T00:33:08.010Z,9.50
2023-01-09T00:35:35.388Z,9.40
2023-01-09T00:38:03.635Z,8.50
2023-01-09T00:40:30.905Z,9.00
2023-01-09T00:42:58.380Z,8.30
2023-01-09T00:45:29.405Z,7.60
2023-01-09T00:48:09.519Z,8.20
2023-01-09T00:50:37.753Z,8.10
2023-01-09T00:53:17.286Z,8.20
2023-01-09T00:55:44.553Z,9.80
2023-01-09T00:58:12.031Z,9.70
2023-01-09T01:00:39.252Z,10.70
2023-01-09T01:03:06.612Z,10.50
2023-01-09T01:05:52.812Z,9.90
2023-01-09T01:08:20.740Z,10.60
2023-01-09T01:10:49.062Z,9.30
2023-01-09T01:13:16.569Z,9.50
2023-01-09T01:15:45.572Z,9.80
2023-01-09T01:18:14.356Z,9.90
2023-01-09T01:20:43.111Z,8.90
2023-01-09T01:23:10.830Z,9.10
2023-01-09T01:25:42.557Z,8.00
2023-01-09T01:28:10.633Z,8.20
2023-01-09T01:30:39.993Z,7.50
2023-01-09T01:33:07.434Z,8.10
2023-01-09T01:35:35.045Z,4.00
2023-01-09T01:38:02.561Z,3.90
2023-01-09T01:40:30.424Z,1.50
2023-01-09T01:42:58.835Z,1.00
2023-01-09T01:45:28.389Z,1.00
2023-01-09T01:48:01.621Z,1.00
2023-01-09T01:50:50.299Z,1.00
2023-01-09T01:53:25.681Z,1.00
2023-01-09T01:55:58.786Z,1.00
2023-01-09T01:58:27.581Z,1.00
2023-01-09T02:00:55.175Z,1.00
2023-01-09T02:03:27.265Z,1.00
2023-01-09T02:05:54.648Z,1.00
2023-01-09T02:08:22.462Z,1.00
2023-01-09T02:10:50.622Z,1.00
2023-01-09T02:13:18.818Z,1.00
2023-01-09T02:15:58.457Z,1.00
2023-01-09T02:18:52.274Z,1.00
2023-01-09T02:21:42.779Z,1.00
2023-01-09T02:24:17.237Z,1.00
2023-01-09T02:27:09.026Z,1.00
2023-01-09T02:30:01.281Z,14.30
2023-01-09T02:32:50.397Z,1.00
2023-01-09T02:35:35.272Z,1.00
2023-01-09T02:38:28.113Z,1.00
2023-01-09T02:41:20.704Z,1.00
2023-01-09T02:43:47.968Z,1.00
2023-01-09T02:46:21.508Z,1.00
2023-01-09T02:48:52.700Z,1.00
2023-01-09T02:51:43.550Z,1.30
2023-01-09T02:54:22.017Z,1.30
2023-01-09T02:57:28.820Z,1.00
2023-01-09T03:00:21.448Z,1.90
2023-01-09T03:03:10.487Z,1.60
2023-01-09T03:05:44.758Z,1.50
2023-01-09T03:08:23.048Z,1.20
2023-01-09T03:10:59.870Z,1.60
2023-01-09T03:13:33.256Z,1.20
2023-01-09T03:16:05.452Z,1.80
2023-01-09T03:18:34.520Z,1.00
2023-01-09T03:21:02.944Z,1.00
2023-01-09T03:24:05.611Z,1.00
2023-01-09T03:26:33.110Z,1.00
2023-01-09T03:29:00.593Z,2.40
2023-01-09T03:31:27.975Z,2.00
2023-01-09T03:33:55.520Z,2.10
2023-01-09T03:36:25.727Z,2.40
2023-01-09T03:38:55.816Z,3.30
2023-01-09T03:41:23.232Z,3.50
2023-01-09T03:43:50.416Z,2.80
2023-01-09T03:46:17.897Z,5.00
2023-01-09T03:48:45.262Z,2.80
2023-01-09T03:51:12.475Z,3.60
2023-01-09T03:53:39.833Z,4.00
2023-01-09T03:56:07.393Z,3.90
2023-01-09T03:58:34.826Z,3.80
2023-01-09T04:01:05.334Z,4.30
2023-01-09T04:03:32.733Z,4.90
2023-01-09T04:06:00.248Z,4.20
2023-01-09T04:08:27.463Z,4.30
2023-01-09T04:10:54.971Z,4.80
2023-01-09T04:13:22.830Z,3.10
2023-01-09T04:15:50.095Z,4.10
2023-01-09T04:18:17.359Z,4.90
2023-01-09T04:20:47.582Z,6.20
2023-01-09T04:23:14.914Z,6.20
2023-01-09T04:25:42.114Z,20.20
2023-01-09T04:28:09.434Z,6.40
2023-01-09T04:30:36.693Z,5.60
2023-01-09T04:33:03.993Z,5.70
2023-01-09T04:35:31.216Z,4.50
2023-01-09T04:37:58.747Z,6.80
2023-01-09T04:40:25.919Z,6.10
2023-01-09T04:42:53.130Z,7.50
2023-01-09T04:45:20.481Z,7.00
2023-01-09T04:47:47.948Z,7.80
2023-01-09T04:50:15.307Z,8.70
2023-01-09T04:52:42.534Z,8.10
2023-01-09T04:55:10.255Z,7.20
2023-01-09T04:57:38.737Z,7.20
2023-01-09T05:00:12.136Z,6.60
2023-01-09T05:02:39.554Z,5.70
2023-01-09T05:05:11.364Z,6.20
2023-01-09T05:07:39.548Z,8.50
2023-01-09T05:10:08.460Z,8.20
2023-01-09T05:12:36.432Z,8.30
2023-01-09T05:15:04.852Z,9.30
2023-01-09T05:17:32.102Z,10.00
2023-01-09T05:20:00.910Z,10.40
2023-01-09T05:22:28.335Z,9.60
2023-01-09T05:24:55.603Z,9.70
2023-01-09T05:27:23.210Z,9.80
2023-01-09T05:29:50.432Z,16.60
2023-01-09T05:32:17.716Z,16.20
2023-01-09T05:34:44.949Z,14.00
2023-01-09T05:37:12.133Z,19.50
2023-01-09T05:39:39.598Z,11.70
2023-01-09T05:42:06.777Z,12.10
2023-01-09T05:44:34.035Z,16.10
2023-01-09T05:47:02.798Z,17.70
2023-01-09T05:49:30.220Z,16.70
2023-01-09T05:51:57.432Z,18.10
2023-01-09T05:54:24.697Z,15.20
2023-01-09T05:56:51.929Z,11.80
2023-01-09T05:59:19.755Z,16.20
2023-01-09T06:01:46.943Z,20.20
2023-01-09T06:04:14.360Z,21.20
2023-01-09T06:06:41.563Z,16.00
2023-01-09T06:09:08.917Z,16.00
2023-01-09T06:11:38.323Z,17.90
2023-01-09T06:14:06.601Z,21.40
2023-01-09T06:16:33.809Z,23.90
2023-01-09T06:19:01.152Z,23.80
2023-01-09T06:21:29.612Z,25.30
2023-01-09T06:23:56.917Z,25.70
2023-01-09T06:26:25.173Z,32.00
2023-01-09T06:28:53.047Z,21.10
2023-01-09T06:31:20.356Z,19.30
2023-01-09T06:33:47.718Z,26.10
2023-01-09T06:36:15.050Z,38.50
2023-01-09T06:38:42.471Z,31.70
2023-01-09T06:41:09.993Z,26.90
2023-01-09T06:43:37.295Z,18.40
2023-01-09T06:46:05.808Z,17.80
2023-01-09T06:48:33.770Z,23.20
2023-01-09T06:51:01.138Z,29.30
2023-01-09T06:53:28.439Z,24.90
2023-01-09T06:55:55.618Z,24.70
2023-01-09T06:58:22.885Z,24.90
2023-01-09T07:00:50.266Z,25.10
2023-01-09T07:03:19.983Z,23.90
2023-01-09T07:05:47.634Z,23.20
2023-01-09T07:08:15.261Z,23.80
2023-01-09T07:10:43.695Z,23.90
2023-01-09T07:13:10.983Z,24.80
2023-01-09T07:15:38.384Z,25.30
2023-01-09T07:18:05.707Z,30.40
2023-01-09T07:20:32.971Z,26.90
2023-01-09T07:23:00.295Z,24.80
2023-01-09T07:25:27.592Z,25.30
2023-01-09T07:27:54.799Z,28.60
2023-01-09T07:30:22.108Z,26.20
2023-01-09T07:32:49.283Z,27.50
2023-01-09T07:35:16.979Z,27.70
2023-01-09T07:37:44.181Z,27.30
2023-01-09T07:40:11.833Z,26.30
2023-01-09T07:42:39.190Z,25.80
2023-01-09T07:45:07.069Z,24.20
2023-01-09T07:47:34.316Z,23.30
2023-01-09T07:50:01.640Z,24.60
2023-01-09T07:52:28.898Z,23.80
2023-01-09T07:54:56.144Z,24.50
2023-01-09T07:57:23.436Z,23.60
2023-01-09T07:59:50.683Z,22.00
2023-01-09T08:02:18.334Z,21.10
2023-01-09T08:04:45.879Z,22.30
2023-01-09T08:07:13.224Z,24.30
2023-01-09T08:09:40.503Z,25.10
2023-01-09T08:12:07.741Z,25.20
2023-01-09T08:14:36.085Z,25.60
2023-01-09T08:17:03.367Z,27.20
2023-01-09T08:19:30.576Z,27.00
2023-01-09T08:21:57.830Z,27.40
2023-01-09T08:24:25.065Z,27.10
2023-01-09T08:26:52.257Z,27.20
2023-01-09T08:29:19.561Z,29.40
2023-01-09T08:31:46.926Z,29.80
2023-01-09T08:34:14.186Z,28.80
2023-01-09T08:36:41.383Z,29.50
2023-01-09T08:39:09.619Z,29.10
2023-01-09T08:41:55.131Z,27.40
2023-01-09T08:44:41.010Z,27.80
2023-01-09T08:47:08.479Z,26.90
2023-01-09T08:49:37.669Z,28.20
2023-01-09T08:52:06.378Z,29.40
2023-01-09T08:54:36.797Z,29.60
2023-01-09T08:57:04.109Z,32.50
2023-01-09T08:59:31.284Z,31.20
2023-01-09T09:01:58.641Z,30.10
2023-01-09T09:04:26.042Z,32.90
2023-01-09T09:06:53.297Z,30.10
2023-01-09T09:09:20.550Z,31.80
2023-01-09T09:11:47.756Z,32.00
2023-01-09T09:14:33.576Z,34.30
2023-01-09T09:17:00.842Z,34.00
2023-01-09T09:19:28.137Z,36.80
2023-01-09T09:21:55.336Z,35.70
2023-01-09T09:24:22.531Z,36.80
2023-01-09T09:26:49.731Z,35.60
2023-01-09T09:29:17.013Z,34.50
2023-01-09T09:31:44.263Z,39.30
2023-01-09T09:34:13.006Z,36.00
2023-01-09T09:36:40.577Z,39.20
2023-01-09T09:39:08.670Z,45.30
2023-01-09T09:42:06.519Z,41.00
2023-01-09T09:45:11.619Z,36.00
2023-01-09T09:48:03.782Z,35.80
2023-01-09T09:51:02.504Z,38.20
2023-01-09T09:53:41.685Z,47.30
2023-01-09T09:56:13.906Z,47.90
2023-01-09T09:58:45.691Z,51.00
2023-01-09T10:01:19.154Z,47.80
2023-01-09T10:03:52.463Z,49.80
2023-01-09T10:06:37.734Z,55.50
2023-01-09T10:09:20.660Z,55.40
2023-01-09T10:12:18.983Z,67.80
2023-01-09T10:14:46.231Z,61.90
2023-01-09T10:17:38.642Z,60.10
2023-01-09T10:20:36.374Z,54.00
2023-01-09T10:23:37.656Z,52.80
2023-01-09T10:26:27.770Z,49.00
2023-01-09T10:29:37.994Z,47.70
2023-01-09T10:32:30.221Z,46.90
2023-01-09T10:35:03.289Z,45.50
2023-01-09T10:37:45.140Z,45.60
2023-01-09T10:40:30.422Z,43.60
2023-01-09T10:43:15.398Z,49.90
2023-01-09T10:45:54.536Z,52.90
2023-01-09T10:48:38.014Z,52.10
2023-01-09T10:51:19.619Z,55.60
2023-01-09T10:53:51.293Z,56.40
2023-01-09T10:56:23.511Z,63.50
2023-01-09T10:58:52.834Z,70.30
2023-01-09T11:01:27.639Z,75.90
2023-01-09T11:03:54.963Z,80.00
2023-01-09T11:06:44.554Z,87.20
2023-01-09T11:09:12.360Z,87.80
2023-01-09T11:11:45.386Z,89.60
2023-01-09T11:14:27.769Z,90.30
2023-01-09T11:16:56.546Z,88.60
2023-01-09T11:19:24.842Z,84.80
2023-01-09T11:22:16.374Z,86.90
2023-01-09T11:24:43.938Z,81.20
2023-01-09T11:27:14.151Z,79.50
2023-01-09T11:29:42.381Z,79.20
2023-01-09T11:32:25.463Z,86.70
2023-01-09T11:34:52.729Z,88.60
2023-01-09T11:37:33.787Z,92.80
2023-01-09T11:40:01.623Z,93.20
2023-01-09T11:42:48.697Z,94.70
2023-01-09T11:45:20.390Z,95.40
2023-01-09T11:47:48.064Z,96.30
2023-01-09T11:50:28.853Z,94.60
2023-01-09T11:53:19.005Z,96.50
2023-01-09T11:55:51.523Z,98.20
2023-01-09T11:58:24.164Z,96.30
2023-01-09T12:01:06.438Z,94.00
2023-01-09T12:04:04.215Z,94.80
2023-01-09T12:06:45.361Z,95.00
2023-01-09T12:09:41.532Z,96.00
2023-01-09T12:12:20.654Z,98.70
2023-01-09T12:15:10.198Z,99.10
2023-01-09T12:17:47.742Z,99.90
2023-01-09T12:20:38.865Z,99.90
2023-01-09T12:23:24.873Z,99.90
2023-01-09T12:26:24.216Z,99.90
2023-01-09T12:29:12.668Z,99.90
2023-01-09T12:31:45.599Z,99.90
2023-01-09T12:34:25.345Z,99.90
2023-01-09T12:37:26.706Z,99.20
2023-01-09T12:40:11.564Z,99.00
2023-01-09T12:42:53.711Z,98.50
2023-01-09T12:45:39.666Z,97.40
2023-01-09T12:48:28.206Z,96.10
2023-01-09T12:51:14.349Z,95.90
2023-01-09T12:53:49.512Z,95.80
2023-01-09T12:56:25.544Z,96.30
2023-01-09T12:59:00.344Z,97.40
2023-01-09T13:01:33.226Z,99.90
2023-01-09T13:04:15.303Z,99.90
2023-01-09T13:06:49.195Z,99.60
2023-01-09T13:09:41.924Z,99.90
2023-01-09T13:12:15.931Z,99.90
2023-01-09T13:15:15.091Z,99.90
2023-01-09T13:18:31.337Z,99.90
2023-01-09T13:20:58.948Z,99.90
2023-01-09T13:23:40.733Z,99.90
2023-01-09T13:26:15.522Z,99.90
2023-01-09T13:28:47.059Z,99.90
2023-01-09T13:31:51.599Z,99.90
2023-01-09T13:34:23.683Z,99.90
2023-01-09T13:36:53.873Z,99.90
2023-01-09T13:39:27.069Z,99.90
2023-01-09T13:42:17.305Z,99.90
2023-01-09T13:44:47.278Z,99.90
2023-01-09T13:47:24.873Z,99.90
2023-01-09T13:49:52.087Z,99.90
2023-01-09T13:52:30.384Z,99.90
2023-01-09T13:55:00.365Z,99.90
2023-01-09T13:57:35.949Z,99.90
2023-01-09T14:00:15.053Z,99.90
2023-01-09T14:02:44.771Z,99.90
2023-01-09T14:05:17.066Z,99.90
2023-01-09T14:07:49.547Z,99.90
2023-01-09T14:10:24.946Z,51.50
2023-01-09T14:12:54.931Z,29.30
2023-01-09T14:15:34.830Z,23.60
2023-01-09T14:18:23.463Z,22.00
2023-01-09T14:21:12.039Z,21.70
2023-01-09T14:24:06.461Z,21.10
2023-01-09T14:26:56.572Z,19.30
2023-01-09T14:29:38.255Z,18.10
2023-01-09T14:32:25.002Z,17.10
2023-01-09T14:35:10.901Z,16.80
2023-01-09T14:37:40.953Z,15.60
2023-01-09T14:40:15.886Z,14.50
2023-01-09T14:42:46.692Z,14.30
2023-01-09T14:45:21.735Z,14.50
2023-01-09T14:47:54.427Z,14.50
2023-01-09T14:50:27.340Z,13.60
2023-01-09T14:53:03.974Z,13.90
2023-01-09T14:55:42.548Z,15.40
2023-01-09T14:58:19.341Z,10.70
2023-01-09T15:00:58.732Z,10.40
2023-01-09T15:03:39.489Z,9.20
2023-01-09T15:06:10.717Z,8.00
2023-01-09T15:08:38.042Z,8.10
2023-01-09T15:11:05.507Z,7.20
2023-01-09T15:13:36.657Z,6.00
2023-01-09T15:16:13.261Z,5.80
2023-01-09T15:18:43.087Z,5.20
2023-01-09T15:21:30.883Z,4.70
2023-01-09T15:24:21.540Z,5.30
2023-01-09T15:27:01.277Z,4.10
2023-01-09T15:29:28.956Z,4.20
2023-01-09T15:32:01.931Z,4.00
2023-01-09T15:34:29.659Z,3.50
2023-01-09T15:36:56.937Z,4.40
2023-01-09T15:39:31.535Z,5.50
2023-01-09T15:42:19.347Z,5.10
2023-01-09T15:44:49.935Z,7.10
2023-01-09T15:47:23.873Z,6.50
2023-01-09T15:49:52.325Z,6.10
2023-01-09T15:52:20.328Z,6.50
2023-01-09T15:54:48.517Z,6.70
2023-01-09T15:57:51.499Z,6.40
2023-01-09T16:00:33.734Z,6.50
2023-01-09T16:03:11.121Z,4.40
2023-01-09T16:05:47.510Z,4.40
2023-01-09T16:08:29.506Z,2.80
2023-01-09T16:11:01.571Z,2.40
2023-01-09T16:13:31.508Z,1.10
2023-01-09T16:16:01.525Z,1.70
2023-01-09T16:18:30.746Z,1.10
2023-01-09T16:21:11.886Z,2.00
2023-01-09T16:23:50.375Z,1.00
2023-01-09T16:26:23.782Z,1.00
2023-01-09T16:28:52.119Z,1.00
2023-01-09T16:31:37.594Z,1.00
2023-01-09T16:34:06.979Z,1.00
2023-01-09T16:36:35.303Z,1.00
2023-01-09T16:39:04.194Z,1.00
2023-01-09T16:41:49.963Z,1.00
2023-01-09T16:44:19.322Z,1.00
2023-01-09T16:46:46.789Z,1.00
2023-01-09T16:49:23.618Z,1.00
2023-01-09T16:51:51.667Z,10.50
2023-01-09T16:54:19.615Z,1.00
2023-01-09T16:56:49.620Z,1.00
2023-01-09T16:59:25.177Z,1.00
2023-01-09T17:01:53.812Z,1.00
2023-01-09T17:04:21.456Z,1.00
2023-01-09T17:06:49.687Z,1.00
2023-01-09T17:09:20.110Z,1.00
2023-01-09T17:11:47.307Z,1.00
2023-01-09T17:14:15.008Z,1.00
2023-01-09T17:16:45.839Z,1.00
2023-01-09T17:19:18.875Z,1.00
2023-01-09T17:21:46.625Z,1.00
2023-01-09T17:24:32.608Z,1.00
2023-01-09T17:27:19.118Z,7.10
2023-01-09T17:29:46.530Z,1.00
2023-01-09T17:32:18.480Z,1.00
2023-01-09T17:34:45.835Z,1.00
2023-01-09T17:37:18.141Z,1.00
2023-01-09T17:39:46.044Z,1.00
2023-01-09T17:42:13.307Z,1.00
2023-01-09T17:44:40.754Z,1.00
2023-01-09T17:47:15.943Z,1.00
2023-01-09T17:49:43.355Z,1.00
2023-01-09T17:52:10.775Z,1.00
2023-01-09T17:54:38.057Z,1.00
2023-01-09T17:57:05.764Z,1.00
2023-01-09T17:59:33.363Z,1.00
2023-01-09T18:02:00.728Z,1.00
2023-01-09T18:04:28.035Z,1.00
2023-01-09T18:06:55.246Z,1.00
2023-01-09T18:09:22.503Z,1.00
2023-01-09T18:11:49.725Z,1.00
2023-01-09T18:14:17.665Z,1.00
2023-01-09T18:16:45.392Z,1.00
2023-01-09T18:19:12.785Z,1.00
2023-01-09T18:21:39.992Z,1.00
2023-01-09T18:24:08.706Z,1.00
2023-01-09T18:26:36.020Z,1.00
2023-01-09T18:29:03.759Z,1.00
2023-01-09T18:31:31.214Z,1.00
2023-01-09T18:34:02.350Z,1.00
2023-01-09T18:36:30.575Z,1.00
2023-01-09T18:39:00.199Z,1.00
2023-01-09T18:41:28.046Z,1.00
2023-01-09T18:44:00.599Z,1.00
2023-01-09T18:46:32.137Z,1.00
2023-01-09T18:49:02.469Z,1.00
2023-01-09T18:51:30.165Z,1.00
2023-01-09T18:53:58.774Z,1.00
2023-01-09T18:56:26.271Z,1.00
2023-01-09T18:58:57.577Z,1.00
2023-01-09T19:01:25.962Z,1.00
2023-01-09T19:03:53.532Z,1.00
2023-01-09T19:06:21.411Z,1.00
2023-01-09T19:08:48.983Z,1.00
2023-01-09T19:11:16.402Z,1.00
2023-01-09T19:13:44.416Z,1.00
2023-01-09T19:16:11.980Z,1.00
2023-01-09T19:18:41.629Z,1.00
2023-01-09T19:21:22.781Z,1.00
2023-01-09T19:23:50.178Z,1.00
2023-01-09T19:26:21.450Z,1.00
2023-01-09T19:28:50.257Z,1.00
2023-01-09T19:31:18.265Z,1.00
2023-01-09T19:33:46.080Z,1.00
2023-01-09T19:36:13.541Z,1.00
2023-01-09T19:38:41.059Z,1.00
2023-01-09T19:41:14.656Z,1.00
2023-01-09T19:43:42.471Z,1.00
2023-01-09T19:46:12.591Z,1.00
2023-01-09T19:48:42.582Z,1.00
2023-01-09T19:51:11.258Z,1.00
2023-01-09T19:53:39.126Z,1.00
2023-01-09T19:56:07.258Z,1.00
2023-01-09T19:58:34.551Z,1.00
2023-01-09T20:01:13.488Z,1.00
2023-01-09T20:03:45.167Z,1.00
2023-01-09T20:06:17.722Z,1.00
2023-01-09T20:08:52.861Z,1.00
2023-01-09T20:11:21.429Z,1.00
2023-01-09T20:13:49.309Z,1.00
2023-01-09T20:16:22.009Z,1.00
2023-01-09T20:18:49.381Z,1.00
2023-01-09T20:23:51.292Z,1.00
2023-01-09T20:26:19.283Z,1.00
2023-01-09T20:28:47.521Z,1.00
2023-01-09T20:31:17.136Z,1.00
2023-01-09T20:33:46.001Z,1.00
2023-01-09T20:36:13.476Z,1.00
2023-01-09T20:38:42.156Z,1.00
2023-01-09T20:41:11.165Z,1.00
2023-01-09T20:43:40.306Z,1.00
2023-01-09T20:46:07.845Z,1.00
2023-01-09T20:48:35.150Z,1.00
2023-01-09T20:51:09.967Z,1.00
2023-01-09T20:53:37.218Z,1.00
2023-01-09T20:56:07.177Z,1.00
2023-01-09T20:58:34.781Z,1.00
2023-01-09T21:01:11.004Z,1.00
2023-01-09T21:03:38.527Z,1.00
2023-01-09T21:06:07.683Z,1.00
2023-01-09T21:08:35.640Z,1.00
2023-01-09T21:11:03.831Z,1.00
2023-01-09T21:13:31.603Z,1.00
2023-01-09T21:16:08.247Z,1.00
2023-01-09T21:18:37.431Z,1.00
2023-01-09T21:21:07.834Z,1.00
2023-01-09T21:23:35.808Z,1.00
2023-01-09T21:26:13.493Z,1.00
2023-01-09T21:28:48.950Z,1.00
2023-01-09T21:31:22.486Z,1.00
2023-01-09T21:33:49.799Z,1.00
2023-01-09T21:36:17.427Z,1.00
2023-01-09T21:38:45.466Z,1.00
2023-01-09T21:41:32.501Z,1.00
2023-01-09T21:44:18.312Z,1.00
2023-01-09T21:46:57.835Z,1.00
2023-01-09T21:49:27.084Z,1.00
2023-01-09T21:51:55.418Z,1.00
2023-01-09T21:54:23.618Z,1.00
2023-01-09T21:56:54.687Z,1.00
2023-01-09T21:59:22.401Z,1.00
2023-01-09T22:01:50.457Z,1.00
2023-01-09T22:04:20.067Z,1.00
2023-01-09T22:06:47.353Z,1.00
2023-01-09T22:09:15.173Z,1.00
2023-01-09T22:11:43.571Z,1.00
2023-01-09T22:14:16.845Z,1.00
2023-01-09T22:16:45.094Z,1.00
2023-01-09T22:19:13.318Z,1.00
2023-01-09T22:21:40.620Z,1.00
2023-01-09T22:24:09.353Z,1.00
2023-01-09T22:26:36.613Z,1.00
2023-01-09T22:29:03.905Z,1.00
2023-01-09T22:31:32.887Z,1.00
2023-01-09T22:34:02.563Z,1.00
2023-01-09T22:36:31.119Z,1.00
2023-01-09T22:39:00.429Z,1.00
2023-01-09T22:41:31.996Z,1.00
2023-01-09T22:43:59.470Z,1.00
2023-01-09T22:46:26.787Z,1.00
2023-01-09T22:48:54.021Z,1.00
2023-01-09T22:51:21.937Z,1.00
2023-01-09T22:53:50.305Z,1.00
2023-01-09T22:56:20.227Z,1.00
2023-01-09T22:58:52.036Z,1.00
2023-01-09T23:01:20.507Z,1.00
2023-01-09T23:03:48.453Z,1.00
2023-01-09T23:06:18.497Z,1.00
2023-01-09T23:08:46.345Z,1.00
2023-01-09T23:11:16.586Z,1.00
2023-01-09T23:13:43.931Z,1.00
2023-01-09T23:16:11.210Z,1.00
2023-01-09T23:18:38.515Z,1.00
2023-01-09T23:21:05.739Z,1.00
2023-01-09T23:23:33.440Z,1.00
2023-01-09T23:26:03.233Z,1.00
2023-01-09T23:28:30.633Z,1.00
2023-01-09T23:30:58.126Z,1.00
2023-01-09T23:33:25.647Z,1.00
2023-01-09T23:35:52.940Z,1.00
2023-01-09T23:38:20.672Z,1.00
2023-01-09T23:40:47.999Z,1.00
2023-01-09T23:43:15.584Z,1.00
2023-01-09T23:45:44.663Z,1.00
2023-01-09T23:48:15.176Z,1.00
2023-01-09T23:50:53.442Z,1.00
2023-01-09T23:53:22.309Z,1.00
2023-01-09T23:55:50.281Z,1.00
2023-01-09T23:58:17.464Z,1.00
